createdAt,value
2019-03-06T00:01:09.654Z,4.00
2019-03-06T00:03:41.229Z,4.10
2019-03-06T00:06:16.647Z,3.99
2019-03-06T00:08:43.798Z,3.96
2019-03-06T00:11:18.025Z,4.01
2019-03-06T00:13:51.199Z,4.03
2019-03-06T00:16:21.396Z,4.07
2019-03-06T00:18:51.804Z,4.12
2019-03-06T00:21:22.390Z,4.12
2019-03-06T00:23:52.839Z,4.13
2019-03-06T00:26:23.138Z,4.11
2019-03-06T00:28:53.399Z,4.15
2019-03-06T00:31:23.528Z,4.17
2019-03-06T00:33:54.061Z,4.11
2019-03-06T00:36:26.594Z,4.14
2019-03-06T00:38:56.888Z,4.12
2019-03-06T00:41:36.973Z,4.06
2019-03-06T00:44:07.183Z,3.89
2019-03-06T00:46:37.407Z,4.03
2019-03-06T00:49:07.820Z,4.09
2019-03-06T00:51:38.029Z,4.06
2019-03-06T00:54:09.618Z,3.93
2019-03-06T00:56:40.046Z,3.97
2019-03-06T00:59:13.432Z,3.90
2019-03-06T01:01:43.770Z,3.87
2019-03-06T01:04:14.860Z,3.88
2019-03-06T01:06:45.011Z,3.89
2019-03-06T01:09:18.213Z,3.75
2019-03-06T01:11:50.718Z,3.76
2019-03-06T01:14:21.085Z,3.79
2019-03-06T01:16:51.338Z,3.72
2019-03-06T01:19:23.781Z,3.70
2019-03-06T01:21:53.938Z,3.64
2019-03-06T01:24:24.173Z,3.64
2019-03-06T01:26:54.989Z,3.63
2019-03-06T01:29:26.278Z,3.64
2019-03-06T01:31:56.652Z,3.63
2019-03-06T01:34:48.560Z,3.42
2019-03-06T01:37:24.099Z,3.32
2019-03-06T01:40:07.235Z,3.14
2019-03-06T01:42:45.484Z,3.19
2019-03-06T01:45:16.058Z,3.19
2019-03-06T01:47:46.342Z,3.08
2019-03-06T01:50:16.616Z,3.14
2019-03-06T01:52:47.190Z,3.21
2019-03-06T01:55:17.525Z,3.23
2019-03-06T01:57:47.689Z,3.26
2019-03-06T02:00:19.104Z,3.15
2019-03-06T02:02:49.602Z,3.18
2019-03-06T02:05:19.893Z,3.26
2019-03-06T02:07:50.077Z,3.26
2019-03-06T02:10:20.475Z,3.28
2019-03-06T02:12:52.604Z,3.28
2019-03-06T02:15:23.285Z,3.23
2019-03-06T02:17:53.655Z,3.28
2019-03-06T02:20:24.311Z,3.30
2019-03-06T02:22:54.512Z,3.34
2019-03-06T02:25:25.142Z,3.17
2019-03-06T02:27:55.586Z,3.14
2019-03-06T02:30:25.886Z,3.16
2019-03-06T02:32:59.028Z,3.21
2019-03-06T02:35:29.400Z,3.23
2019-03-06T02:38:03.025Z,3.27
2019-03-06T02:40:33.616Z,3.28
2019-03-06T02:43:04.223Z,3.32
2019-03-06T02:45:34.648Z,3.28
2019-03-06T02:48:06.722Z,3.24
2019-03-06T02:50:36.944Z,3.19
2019-03-06T02:53:07.169Z,3.17
2019-03-06T02:55:38.497Z,3.16
2019-03-06T02:58:39.636Z,2.94
2019-03-06T03:01:22.445Z,2.99
2019-03-06T03:04:12.093Z,2.99
2019-03-06T03:06:49.212Z,2.88
2019-03-06T03:09:20.439Z,2.91
2019-03-06T03:11:50.929Z,2.94
2019-03-06T03:14:21.576Z,2.90
2019-03-06T03:16:52.325Z,2.88
2019-03-06T03:19:22.573Z,2.89
2019-03-06T03:21:52.927Z,2.88
2019-03-06T03:24:23.617Z,2.88
2019-03-06T03:26:54.040Z,2.81
2019-03-06T03:29:24.434Z,2.53
2019-03-06T03:31:54.575Z,2.50
2019-03-06T03:34:25.100Z,2.42
2019-03-06T03:36:55.650Z,2.49
2019-03-06T03:39:26.120Z,2.57
2019-03-06T03:41:56.279Z,2.60
2019-03-06T03:44:26.451Z,2.46
2019-03-06T03:46:56.571Z,2.46
2019-03-06T03:49:27.891Z,2.43
2019-03-06T03:51:58.114Z,2.40
2019-03-06T03:54:28.357Z,2.37
2019-03-06T03:56:59.900Z,2.39
2019-03-06T03:59:30.636Z,2.40
2019-03-06T04:02:03.306Z,2.23
2019-03-06T04:04:35.079Z,2.19
2019-03-06T04:07:05.803Z,2.21
2019-03-06T04:09:36.297Z,2.12
2019-03-06T04:12:06.591Z,2.19
2019-03-06T04:14:37.086Z,2.10
2019-03-06T04:17:07.440Z,2.10
2019-03-06T04:19:37.810Z,2.05
2019-03-06T04:22:08.379Z,2.04
2019-03-06T04:24:38.921Z,1.99
2019-03-06T04:27:09.439Z,1.76
2019-03-06T04:29:39.680Z,1.74
2019-03-06T04:32:09.952Z,1.59
2019-03-06T04:34:40.635Z,1.71
2019-03-06T04:37:11.100Z,1.72
2019-03-06T04:39:41.584Z,1.63
2019-03-06T04:42:11.848Z,1.58
2019-03-06T04:44:42.048Z,1.52
2019-03-06T04:47:12.225Z,1.48
2019-03-06T04:49:52.255Z,1.38
2019-03-06T04:52:16.158Z,1.31
2019-03-06T04:54:46.500Z,1.14
2019-03-06T04:57:19.730Z,1.21
2019-03-06T04:59:49.950Z,1.17
2019-03-06T05:02:22.408Z,1.23
2019-03-06T05:04:52.703Z,1.32
2019-03-06T05:07:23.109Z,1.41
2019-03-06T05:09:53.322Z,1.48
2019-03-06T05:12:23.496Z,1.48
2019-03-06T05:14:53.710Z,1.49
2019-03-06T05:17:46.282Z,1.40
2019-03-06T05:20:17.851Z,1.42
2019-03-06T05:22:51.904Z,1.33
2019-03-06T05:25:22.621Z,1.17
2019-03-06T05:27:55.700Z,1.01
2019-03-06T05:30:27.396Z,0.97
2019-03-06T05:32:59.614Z,0.75
2019-03-06T05:35:38.565Z,0.91
2019-03-06T05:38:22.289Z,0.91
2019-03-06T05:40:55.566Z,1.00
2019-03-06T05:43:25.715Z,0.92
2019-03-06T05:45:55.915Z,0.90
2019-03-06T05:48:26.136Z,1.00
2019-03-06T05:50:56.303Z,1.02
2019-03-06T05:53:26.469Z,1.05
2019-03-06T05:55:57.288Z,1.05
2019-03-06T05:58:29.730Z,1.04
2019-03-06T06:01:00.060Z,0.94
2019-03-06T06:03:32.884Z,0.67
2019-03-06T06:06:03.525Z,0.58
2019-03-06T06:08:34.047Z,0.49
2019-03-06T06:11:04.576Z,0.61
2019-03-06T06:13:36.498Z,0.60
2019-03-06T06:16:06.886Z,0.60
2019-03-06T06:18:37.116Z,0.64
2019-03-06T06:21:39.707Z,0.68
2019-03-06T06:24:17.539Z,0.75
2019-03-06T06:26:47.997Z,0.87
2019-03-06T06:29:18.379Z,0.87
2019-03-06T06:31:48.781Z,0.99
2019-03-06T06:34:19.499Z,1.11
2019-03-06T06:36:49.767Z,1.19
2019-03-06T06:39:20.405Z,1.29
2019-03-06T06:41:50.615Z,1.38
2019-03-06T06:44:23.735Z,1.22
2019-03-06T06:46:56.395Z,1.20
2019-03-06T06:49:26.630Z,1.46
2019-03-06T06:52:52.974Z,1.55
2019-03-06T06:55:50.758Z,1.44
2019-03-06T06:58:54.798Z,1.20
2019-03-06T07:02:31.323Z,1.41
2019-03-06T07:05:32.794Z,1.62
2019-03-06T07:08:22.306Z,2.02
2019-03-06T07:11:20.744Z,2.16
2019-03-06T07:14:00.856Z,2.23
2019-03-06T07:16:44.970Z,2.57
2019-03-06T07:19:32.731Z,2.65
2019-03-06T07:22:21.985Z,2.87
2019-03-06T07:25:17.409Z,2.99
2019-03-06T07:28:13.105Z,3.03
2019-03-06T07:30:59.984Z,3.11
2019-03-06T07:33:42.899Z,3.17
2019-03-06T07:36:33.749Z,3.24
2019-03-06T07:39:17.877Z,3.25
2019-03-06T07:42:16.842Z,3.37
2019-03-06T07:45:39.721Z,3.60
2019-03-06T07:48:35.176Z,3.79
2019-03-06T07:51:15.406Z,4.05
2019-03-06T07:54:20.837Z,4.34
2019-03-06T07:57:10.802Z,4.61
2019-03-06T07:59:41.149Z,4.86
2019-03-06T08:02:13.595Z,5.01
2019-03-06T08:04:53.133Z,5.37
2019-03-06T08:07:23.705Z,5.78
2019-03-06T08:09:54.740Z,6.16
2019-03-06T08:12:43.197Z,6.51
2019-03-06T08:15:42.136Z,6.90
2019-03-06T08:18:24.180Z,7.23
2019-03-06T08:21:12.802Z,7.85
2019-03-06T08:24:08.676Z,8.58
2019-03-06T08:26:38.990Z,10.27
2019-03-06T08:29:09.461Z,11.91
2019-03-06T08:32:00.837Z,13.15
2019-03-06T08:34:34.165Z,13.91
2019-03-06T08:37:06.130Z,14.48
2019-03-06T08:39:36.780Z,15.31
2019-03-06T08:42:07.176Z,16.04
2019-03-06T08:44:37.508Z,16.40
2019-03-06T08:47:25.526Z,16.64
2019-03-06T08:50:14.636Z,17.15
2019-03-06T08:53:09.854Z,16.34
2019-03-06T08:55:59.200Z,15.80
2019-03-06T08:58:54.281Z,15.25
2019-03-06T09:01:42.310Z,14.77
2019-03-06T09:04:23.062Z,15.49
2019-03-06T09:07:03.175Z,16.70
2019-03-06T09:09:53.497Z,17.17
2019-03-06T09:12:55.080Z,18.07
2019-03-06T09:15:47.190Z,19.93
2019-03-06T09:18:39.226Z,20.73
2019-03-06T09:21:34.520Z,21.53
2019-03-06T09:24:39.792Z,22.59
2019-03-06T09:27:31.177Z,23.37
2019-03-06T09:30:26.138Z,23.83
2019-03-06T09:33:12.914Z,23.80
2019-03-06T09:35:53.208Z,24.07
2019-03-06T09:39:03.470Z,23.07
2019-03-06T09:41:45.639Z,22.63
2019-03-06T09:44:37.592Z,21.99
2019-03-06T09:47:25.715Z,21.60
2019-03-06T09:50:09.889Z,21.57
2019-03-06T09:53:02.087Z,21.96
2019-03-06T09:55:51.372Z,21.23
2019-03-06T09:58:40.493Z,20.41
2019-03-06T10:01:35.735Z,20.08
2019-03-06T10:04:36.967Z,19.65
2019-03-06T10:07:25.149Z,20.29
2019-03-06T10:10:29.834Z,21.11
2019-03-06T10:13:18.017Z,20.50
2019-03-06T10:16:00.190Z,19.59
2019-03-06T10:18:48.121Z,19.42
2019-03-06T10:21:21.291Z,19.02
2019-03-06T10:23:51.672Z,18.32
2019-03-06T10:26:22.895Z,18.32
2019-03-06T10:28:53.050Z,17.83
2019-03-06T10:31:26.290Z,17.44
2019-03-06T10:33:56.502Z,17.51
2019-03-06T10:36:28.462Z,17.00
2019-03-06T10:38:58.755Z,17.33
2019-03-06T10:41:28.925Z,17.22
2019-03-06T10:43:59.063Z,17.22
2019-03-06T10:46:29.239Z,17.12
2019-03-06T10:49:00.071Z,17.26
2019-03-06T10:51:33.465Z,17.80
2019-03-06T10:54:03.750Z,17.52
2019-03-06T10:56:34.024Z,17.47
2019-03-06T10:59:05.802Z,18.07
2019-03-06T11:01:36.226Z,18.42
2019-03-06T11:04:24.795Z,18.80
2019-03-06T11:06:55.547Z,18.81
2019-03-06T11:09:26.722Z,18.74
2019-03-06T11:11:57.245Z,18.79
2019-03-06T11:14:27.670Z,18.49
2019-03-06T11:16:59.021Z,18.27
2019-03-06T11:19:30.877Z,17.94
2019-03-06T11:22:03.147Z,18.41
2019-03-06T11:24:34.674Z,18.37
2019-03-06T11:27:05.490Z,18.20
2019-03-06T11:29:36.021Z,18.19
2019-03-06T11:32:07.720Z,18.03
2019-03-06T11:34:38.130Z,17.53
2019-03-06T11:37:08.472Z,17.56
2019-03-06T11:39:38.656Z,17.63
2019-03-06T11:42:09.618Z,17.47
2019-03-06T11:44:40.042Z,17.46
2019-03-06T11:47:10.286Z,17.78
2019-03-06T11:56:22.096Z,19.29
2019-03-06T11:58:54.257Z,19.42
2019-03-06T12:01:28.174Z,18.81
2019-03-06T12:03:59.440Z,19.35
2019-03-06T12:06:32.577Z,19.35
2019-03-06T12:09:04.369Z,19.20
2019-03-06T12:11:38.823Z,19.23
2019-03-06T12:14:09.904Z,19.46
2019-03-06T12:16:42.011Z,19.47
2019-03-06T12:19:12.292Z,19.08
2019-03-06T12:21:43.785Z,20.12
2019-03-06T12:24:16.967Z,21.25
2019-03-06T12:26:57.760Z,22.02
2019-03-06T12:29:27.980Z,22.07
2019-03-06T12:31:58.383Z,21.64
2019-03-06T12:34:29.050Z,21.81
2019-03-06T12:36:59.491Z,23.31
2019-03-06T12:39:32.000Z,24.21
2019-03-06T12:42:02.653Z,24.20
2019-03-06T12:44:32.845Z,24.30
2019-03-06T12:47:03.161Z,24.26
2019-03-06T12:49:33.406Z,23.69
2019-03-06T12:52:03.696Z,24.95
2019-03-06T12:54:33.835Z,26.50
2019-03-06T12:57:05.114Z,26.65
2019-03-06T12:59:35.304Z,26.89
2019-03-06T13:02:06.082Z,27.25
2019-03-06T13:04:36.602Z,27.56
2019-03-06T13:07:07.828Z,27.43
2019-03-06T13:09:38.034Z,29.11
2019-03-06T13:12:08.620Z,29.19
2019-03-06T13:14:40.885Z,29.31
2019-03-06T13:17:11.208Z,28.98
2019-03-06T13:19:42.621Z,28.91
2019-03-06T13:22:12.793Z,28.08
2019-03-06T13:24:43.725Z,29.17
2019-03-06T13:27:14.069Z,29.39
2019-03-06T13:29:45.544Z,28.47
2019-03-06T13:32:16.261Z,28.15
2019-03-06T13:34:51.716Z,28.08
2019-03-06T13:37:26.045Z,28.62
2019-03-06T13:39:59.088Z,28.98
2019-03-06T13:42:29.765Z,29.11
2019-03-06T13:44:59.884Z,28.45
2019-03-06T13:47:32.346Z,28.16
2019-03-06T13:50:02.622Z,27.46
2019-03-06T13:52:33.170Z,27.82
2019-03-06T13:55:03.711Z,26.80
2019-03-06T13:57:34.084Z,24.65
2019-03-06T14:00:04.535Z,25.13
2019-03-06T14:02:37.212Z,24.82
2019-03-06T14:05:07.638Z,24.22
2019-03-06T14:07:37.793Z,23.72
2019-03-06T14:10:08.221Z,23.79
2019-03-06T14:12:38.386Z,23.55
2019-03-06T14:15:10.336Z,22.27
2019-03-06T14:17:41.603Z,22.54
2019-03-06T14:20:18.340Z,22.86
2019-03-06T14:22:48.897Z,21.12
2019-03-06T14:25:19.222Z,21.72
2019-03-06T14:27:49.812Z,21.37
2019-03-06T14:30:20.602Z,20.45
2019-03-06T14:32:51.275Z,20.45
2019-03-06T14:35:21.500Z,20.43
2019-03-06T14:37:52.882Z,20.21
2019-03-06T14:40:28.586Z,20.07
2019-03-06T14:42:59.088Z,19.64
2019-03-06T14:45:29.554Z,19.69
2019-03-06T14:48:00.828Z,19.29
2019-03-06T14:50:31.331Z,19.80
2019-03-06T14:53:02.076Z,19.52
2019-03-06T14:57:57.041Z,19.74
2019-03-06T15:00:27.417Z,19.17
2019-03-06T15:02:59.579Z,19.17
2019-03-06T15:05:31.537Z,19.05
2019-03-06T15:08:01.996Z,18.63
2019-03-06T15:10:42.502Z,18.66
2019-03-06T15:13:08.374Z,18.64
2019-03-06T15:15:38.507Z,18.60
2019-03-06T15:18:10.980Z,18.34
2019-03-06T15:20:44.451Z,18.55
2019-03-06T15:23:14.758Z,18.34
2019-03-06T15:25:45.161Z,18.19
2019-03-06T15:28:15.388Z,18.27
2019-03-06T15:30:46.290Z,17.77
2019-03-06T15:33:16.647Z,17.97
2019-03-06T15:35:46.976Z,17.66
2019-03-06T15:38:17.287Z,17.50
2019-03-06T15:40:47.400Z,17.60
2019-03-06T15:43:19.685Z,17.57
2019-03-06T15:45:49.890Z,17.16
2019-03-06T15:48:20.789Z,17.23
2019-03-06T15:50:50.933Z,17.21
2019-03-06T15:53:24.522Z,17.09
2019-03-06T15:55:53.099Z,16.99
2019-03-06T15:58:23.919Z,16.75
2019-03-06T16:01:04.555Z,16.67
2019-03-06T16:03:36.471Z,16.69
2019-03-06T16:06:07.408Z,16.60
2019-03-06T16:08:37.801Z,16.51
2019-03-06T16:11:08.542Z,16.37
2019-03-06T16:13:39.316Z,16.33
2019-03-06T16:16:09.675Z,16.16
2019-03-06T16:18:42.652Z,16.13
2019-03-06T16:21:13.511Z,16.04
2019-03-06T16:23:43.851Z,15.99
2019-03-06T16:26:14.369Z,15.73
2019-03-06T16:28:46.453Z,15.65
2019-03-06T16:31:17.401Z,15.32
2019-03-06T16:33:53.287Z,15.38
2019-03-06T16:36:25.889Z,15.07
2019-03-06T16:38:59.119Z,15.05
2019-03-06T16:41:29.267Z,14.93
2019-03-06T16:44:08.816Z,14.81
2019-03-06T16:46:39.090Z,14.65
2019-03-06T16:49:09.528Z,14.60
2019-03-06T16:51:41.619Z,14.36
2019-03-06T16:54:12.003Z,14.28
2019-03-06T16:56:45.455Z,14.17
2019-03-06T16:59:15.937Z,13.72
2019-03-06T17:01:51.248Z,13.22
2019-03-06T17:04:21.495Z,13.18
2019-03-06T17:06:51.858Z,12.77
2019-03-06T17:09:22.946Z,12.77
2019-03-06T17:11:53.774Z,12.99
2019-03-06T17:14:28.779Z,12.90
2019-03-06T17:17:03.489Z,12.90
2019-03-06T17:19:33.720Z,12.51
2019-03-06T17:22:04.222Z,12.33
2019-03-06T17:24:34.473Z,11.91
2019-03-06T17:27:04.741Z,12.17
2019-03-06T17:29:35.028Z,12.08
2019-03-06T17:32:07.484Z,12.14
2019-03-06T17:34:38.952Z,11.98
2019-03-06T17:37:09.334Z,11.71
2019-03-06T17:39:42.547Z,11.43
2019-03-06T17:42:15.083Z,11.45
2019-03-06T17:44:45.602Z,11.49
2019-03-06T17:47:16.073Z,11.45
2019-03-06T17:49:48.169Z,11.33
2019-03-06T17:52:19.578Z,11.32
2019-03-06T17:54:53.336Z,11.17
2019-03-06T17:57:23.633Z,11.14
2019-03-06T17:59:53.969Z,11.00
2019-03-06T18:02:30.107Z,10.42
2019-03-06T18:05:00.486Z,10.23
2019-03-06T18:07:32.388Z,10.03
2019-03-06T18:10:02.818Z,10.19
2019-03-06T18:12:37.542Z,10.34
2019-03-06T18:15:11.377Z,10.47
2019-03-06T18:17:41.966Z,10.59
2019-03-06T18:20:13.940Z,10.46
2019-03-06T18:22:44.378Z,10.55
2019-03-06T18:25:16.087Z,10.60
2019-03-06T18:27:46.592Z,10.59
2019-03-06T18:30:17.653Z,10.52
2019-03-06T18:32:47.909Z,10.21
2019-03-06T18:35:18.356Z,10.10
2019-03-06T18:37:48.517Z,10.11
2019-03-06T18:40:18.823Z,10.08
2019-03-06T18:42:49.872Z,9.99
2019-03-06T18:45:23.994Z,9.90
2019-03-06T18:47:54.186Z,9.83
2019-03-06T18:50:24.464Z,9.82
2019-03-06T18:52:54.747Z,9.64
2019-03-06T18:55:26.367Z,9.72
2019-03-06T18:57:56.770Z,9.77
2019-03-06T19:00:35.414Z,9.79
2019-03-06T19:03:06.113Z,9.83
2019-03-06T19:05:37.061Z,9.83
2019-03-06T19:08:08.908Z,9.82
2019-03-06T19:10:39.448Z,9.84
2019-03-06T19:13:09.842Z,9.83
2019-03-06T19:15:40.183Z,9.57
2019-03-06T19:18:10.929Z,9.62
2019-03-06T19:20:41.169Z,9.67
2019-03-06T19:23:13.366Z,9.68
2019-03-06T19:25:44.259Z,9.64
2019-03-06T19:28:14.718Z,9.59
2019-03-06T19:30:45.026Z,9.55
2019-03-06T19:33:15.584Z,9.56
2019-03-06T19:35:46.242Z,9.53
2019-03-06T19:38:16.607Z,9.19
2019-03-06T19:40:49.694Z,9.19
2019-03-06T19:43:20.271Z,9.18
2019-03-06T19:45:52.313Z,9.13
2019-03-06T19:48:22.870Z,9.20
2019-03-06T19:50:53.446Z,9.29
2019-03-06T19:53:23.738Z,9.25
2019-03-06T19:55:54.065Z,9.29
2019-03-06T19:58:27.538Z,9.32
2019-03-06T20:00:58.288Z,9.06
2019-03-06T20:03:29.089Z,9.06
2019-03-06T20:05:59.494Z,9.18
2019-03-06T20:08:29.938Z,9.19
2019-03-06T20:11:00.394Z,9.21
2019-03-06T20:13:30.898Z,9.19
2019-03-06T20:16:03.077Z,9.14
2019-03-06T20:18:33.313Z,9.19
2019-03-06T20:21:03.681Z,9.20
2019-03-06T20:23:34.377Z,9.15
2019-03-06T20:26:13.633Z,9.09
2019-03-06T20:28:37.020Z,8.98
2019-03-06T20:31:07.502Z,8.96
2019-03-06T20:33:38.412Z,9.01
2019-03-06T20:36:09.055Z,9.01
2019-03-06T20:38:39.475Z,8.96
2019-03-06T20:41:10.873Z,8.86
2019-03-06T20:43:41.311Z,8.84
2019-03-06T20:46:11.598Z,8.87
2019-03-06T20:48:42.005Z,8.88
2019-03-06T20:51:12.602Z,8.87
2019-03-06T20:53:42.917Z,8.88
2019-03-06T20:56:14.240Z,8.86
2019-03-06T20:58:44.688Z,8.86
2019-03-06T21:01:15.395Z,8.85
2019-03-06T21:03:45.875Z,8.84
2019-03-06T21:06:16.232Z,8.84
2019-03-06T21:08:46.909Z,8.82
2019-03-06T21:11:17.205Z,8.81
2019-03-06T21:13:47.569Z,8.82
2019-03-06T21:16:18.039Z,8.78
2019-03-06T21:18:51.424Z,8.77
2019-03-06T21:21:22.008Z,8.75
2019-03-06T21:23:52.230Z,8.74
2019-03-06T21:26:25.955Z,8.74
2019-03-06T21:28:56.393Z,8.73
2019-03-06T21:31:27.782Z,8.72
2019-03-06T21:33:59.544Z,8.62
2019-03-06T21:36:30.003Z,8.63
2019-03-06T21:39:02.275Z,8.67
2019-03-06T21:41:34.411Z,8.54
2019-03-06T21:44:04.791Z,8.35
2019-03-06T21:46:39.236Z,8.29
2019-03-06T21:49:10.567Z,8.48
2019-03-06T21:51:40.822Z,8.47
2019-03-06T21:54:13.794Z,8.17
2019-03-06T21:56:46.313Z,8.24
2019-03-06T21:59:16.641Z,8.36
2019-03-06T22:01:47.186Z,8.44
2019-03-06T22:04:17.733Z,8.36
2019-03-06T22:06:48.270Z,8.03
2019-03-06T22:09:18.972Z,8.03
2019-03-06T22:11:49.303Z,8.23
2019-03-06T22:14:21.186Z,8.24
2019-03-06T22:16:51.639Z,8.16
2019-03-06T22:19:23.174Z,8.08
2019-03-06T22:21:53.807Z,8.12
2019-03-06T22:24:24.004Z,8.22
2019-03-06T22:26:56.005Z,8.18
2019-03-06T22:29:26.448Z,8.10
2019-03-06T22:31:56.891Z,8.04
2019-03-06T22:34:27.739Z,7.97
2019-03-06T22:36:57.928Z,7.91
2019-03-06T22:39:28.161Z,7.80
2019-03-06T22:41:58.631Z,7.78
2019-03-06T22:44:28.883Z,7.72
2019-03-06T22:46:59.098Z,7.66
2019-03-06T22:49:32.669Z,7.66
2019-03-06T22:52:03.046Z,7.58
2019-03-06T22:54:39.827Z,7.47
2019-03-06T22:57:10.316Z,7.39
2019-03-06T22:59:41.618Z,7.43
2019-03-06T23:02:11.923Z,7.46
2019-03-06T23:04:42.287Z,7.41
2019-03-06T23:07:12.415Z,7.33
2019-03-06T23:09:42.551Z,7.27
2019-03-06T23:12:12.803Z,7.06
2019-03-06T23:14:43.022Z,6.96
2019-03-06T23:17:13.172Z,6.89
2019-03-06T23:19:45.060Z,6.71
2019-03-06T23:22:17.157Z,6.96
2019-03-06T23:24:48.807Z,6.98
2019-03-06T23:27:19.389Z,6.98
2019-03-06T23:29:49.668Z,6.99
2019-03-06T23:32:19.884Z,6.92
2019-03-06T23:34:50.292Z,6.85
2019-03-06T23:37:20.521Z,6.87
2019-03-06T23:39:51.599Z,6.86
2019-03-06T23:42:21.758Z,6.74
2019-03-06T23:44:51.984Z,6.68
2019-03-06T23:47:22.359Z,6.65
2019-03-06T23:49:52.464Z,6.59
2019-03-06T23:52:28.044Z,6.48
2019-03-06T23:54:58.377Z,6.48
2019-03-06T23:57:28.683Z,6.44
2019-03-06T23:59:58.814Z,6.48
